createdAt,value
2023-03-27T00:02:44.835Z,19.01
2023-03-27T00:06:44.867Z,18.99
2023-03-27T00:10:44.986Z,18.99
2023-03-27T00:14:45.097Z,18.99
2023-03-27T00:18:45.257Z,18.99
2023-03-27T00:22:45.334Z,18.98
2023-03-27T00:26:45.455Z,18.98
2023-03-27T00:30:45.608Z,18.98
2023-03-27T00:34:45.638Z,18.96
2023-03-27T00:38:45.872Z,18.94
2023-03-27T00:42:45.859Z,18.94
2023-03-27T00:46:46.019Z,18.94
2023-03-27T00:50:46.123Z,18.93
2023-03-27T00:54:46.236Z,18.92
2023-03-27T00:58:46.309Z,18.92
2023-03-27T01:02:46.543Z,18.93
2023-03-27T01:06:46.536Z,18.91
2023-03-27T01:10:46.658Z,18.91
2023-03-27T01:14:46.882Z,18.90
2023-03-27T01:18:46.928Z,18.89
2023-03-27T01:22:47.039Z,18.88
2023-03-27T01:26:47.140Z,18.87
2023-03-27T01:30:47.304Z,18.85
2023-03-27T01:34:47.441Z,18.85
2023-03-27T01:38:48.413Z,18.84
2023-03-27T01:42:47.342Z,18.84
2023-03-27T01:46:47.360Z,18.82
2023-03-27T01:50:47.451Z,18.84
2023-03-27T01:54:47.561Z,18.83
2023-03-27T01:58:47.711Z,18.82
2023-03-27T02:02:47.907Z,18.80
2023-03-27T02:06:48.030Z,18.80
2023-03-27T02:10:48.134Z,18.80
2023-03-27T02:14:48.264Z,18.80
2023-03-27T02:18:48.430Z,18.79
2023-03-27T02:22:48.577Z,18.78
2023-03-27T02:26:48.772Z,18.78
2023-03-27T02:31:06.779Z,18.77
2023-03-27T02:34:49.845Z,18.76
2023-03-27T02:38:48.897Z,18.76
2023-03-27T02:42:48.820Z,18.75
2023-03-27T02:46:49.000Z,18.75
2023-03-27T02:50:49.155Z,18.74
2023-03-27T02:54:49.336Z,18.73
2023-03-27T02:58:49.468Z,18.71
2023-03-27T03:02:49.714Z,18.71
2023-03-27T03:06:49.854Z,18.69
2023-03-27T03:10:49.993Z,18.69
2023-03-27T03:14:50.131Z,18.68
2023-03-27T03:18:50.408Z,18.68
2023-03-27T03:22:50.498Z,18.67
2023-03-27T03:26:50.645Z,18.68
2023-03-27T03:30:50.843Z,18.68
2023-03-27T03:34:51.012Z,18.67
2023-03-27T03:38:51.139Z,18.68
2023-03-27T03:42:51.326Z,18.68
2023-03-27T03:46:51.502Z,18.68
2023-03-27T03:50:51.647Z,18.68
2023-03-27T03:54:51.836Z,18.67
2023-03-27T03:58:52.023Z,18.67
2023-03-27T04:02:52.315Z,18.66
2023-03-27T04:06:52.385Z,18.63
2023-03-27T04:10:52.563Z,18.62
2023-03-27T04:14:52.734Z,18.61
2023-03-27T04:18:53.025Z,18.63
2023-03-27T04:22:54.286Z,18.59
2023-03-27T04:26:53.092Z,18.58
2023-03-27T04:30:53.055Z,18.58
2023-03-27T04:34:53.146Z,18.58
2023-03-27T04:38:53.343Z,18.58
2023-03-27T04:42:53.515Z,18.55
2023-03-27T04:46:53.806Z,18.55
2023-03-27T04:50:54.048Z,18.59
2023-03-27T04:54:54.106Z,18.68
2023-03-27T04:58:54.295Z,18.77
2023-03-27T05:02:54.498Z,18.84
2023-03-27T05:06:54.535Z,18.90
2023-03-27T05:10:54.727Z,18.93
2023-03-27T05:14:54.709Z,18.95
2023-03-27T05:18:54.783Z,18.98
2023-03-27T05:22:54.845Z,19.00
2023-03-27T05:26:54.947Z,19.03
2023-03-27T05:30:55.300Z,19.04
2023-03-27T05:34:55.049Z,19.09
2023-03-27T05:38:55.068Z,19.11
2023-03-27T05:42:55.431Z,19.17
2023-03-27T05:46:55.453Z,19.22
2023-03-27T05:50:55.335Z,19.35
2023-03-27T05:54:55.439Z,19.47
2023-03-27T05:58:55.430Z,19.41
2023-03-27T06:02:55.504Z,19.64
2023-03-27T06:06:55.305Z,19.85
2023-03-27T06:10:55.573Z,20.06
2023-03-27T06:14:55.239Z,20.17
2023-03-27T06:18:55.184Z,20.31
2023-03-27T06:22:55.114Z,20.42
2023-03-27T06:26:55.095Z,20.51
2023-03-27T06:30:55.081Z,20.60
2023-03-27T06:34:55.047Z,20.69
2023-03-27T06:38:54.970Z,20.78
2023-03-27T06:42:54.947Z,20.85
2023-03-27T06:46:54.968Z,20.89
2023-03-27T06:50:55.136Z,20.92
2023-03-27T06:54:54.827Z,20.96
2023-03-27T06:58:54.821Z,21.03
2023-03-27T07:02:55.044Z,21.08
2023-03-27T07:06:54.709Z,21.12
2023-03-27T07:14:54.650Z,21.23
2023-03-27T07:18:54.950Z,21.28
2023-03-27T07:22:56.451Z,21.34
2023-03-27T07:26:54.538Z,21.38
2023-03-27T07:30:55.355Z,21.41
2023-03-27T07:34:54.728Z,21.46
2023-03-27T07:38:55.031Z,21.51
2023-03-27T07:42:55.089Z,21.53
2023-03-27T07:46:55.483Z,21.44
2023-03-27T07:50:58.199Z,21.40
2023-03-27T07:54:56.469Z,21.34
2023-03-27T07:58:55.403Z,21.29
2023-03-27T08:02:55.451Z,21.23
2023-03-27T08:06:55.384Z,21.18
2023-03-27T08:10:55.276Z,21.15
2023-03-27T08:14:55.489Z,21.12
2023-03-27T08:18:55.217Z,21.08
2023-03-27T08:22:55.480Z,21.06
2023-03-27T08:26:55.984Z,21.05
2023-03-27T08:30:55.465Z,21.04
2023-03-27T08:34:56.181Z,21.02
2023-03-27T08:38:55.410Z,21.04
2023-03-27T08:42:55.502Z,21.10
2023-03-27T08:46:55.528Z,21.18
2023-03-27T08:50:55.528Z,21.22
2023-03-27T08:54:55.343Z,21.35
2023-03-27T08:58:55.512Z,21.51
2023-03-27T09:02:55.362Z,21.59
2023-03-27T09:06:55.213Z,21.64
2023-03-27T09:10:55.505Z,21.68
2023-03-27T09:14:55.181Z,21.72
2023-03-27T09:18:55.122Z,21.76
2023-03-27T09:22:55.516Z,21.80
2023-03-27T09:27:06.370Z,21.84
2023-03-27T09:30:56.042Z,21.89
2023-03-27T09:34:55.010Z,21.92
2023-03-27T09:38:54.994Z,21.96
2023-03-27T09:42:55.511Z,21.99
2023-03-27T09:46:54.846Z,21.95
2023-03-27T09:50:55.204Z,21.98
2023-03-27T09:54:55.021Z,22.01
2023-03-27T09:58:55.025Z,22.01
2023-03-27T10:02:55.042Z,22.02
2023-03-27T10:06:55.544Z,22.05
2023-03-27T10:10:55.255Z,22.06
2023-03-27T10:14:55.555Z,22.10
2023-03-27T10:18:55.118Z,22.18
2023-03-27T10:22:55.068Z,22.25
2023-03-27T10:26:55.097Z,22.29
2023-03-27T10:30:55.729Z,22.32
2023-03-27T10:34:55.065Z,22.32
2023-03-27T10:38:55.555Z,22.24
2023-03-27T10:42:55.538Z,22.23
2023-03-27T10:46:55.102Z,22.23
2023-03-27T10:50:55.167Z,22.30
2023-03-27T10:54:55.079Z,22.36
2023-03-27T10:58:55.557Z,22.44
2023-03-27T11:02:55.103Z,22.50
2023-03-27T11:06:55.040Z,22.54
2023-03-27T11:10:55.120Z,22.58
2023-03-27T11:14:55.044Z,22.60
2023-03-27T11:18:55.042Z,22.63
2023-03-27T11:22:55.045Z,22.65
2023-03-27T11:26:55.004Z,22.68
2023-03-27T11:30:55.675Z,22.68
2023-03-27T11:34:55.564Z,22.68
2023-03-27T11:38:55.547Z,22.63
2023-03-27T11:42:55.246Z,22.58
2023-03-27T11:46:55.569Z,22.52
2023-03-27T11:50:55.517Z,22.45
2023-03-27T11:54:55.297Z,22.39
2023-03-27T11:58:55.285Z,22.36
2023-03-27T12:02:55.365Z,22.34
2023-03-27T12:06:55.648Z,22.32
2023-03-27T12:10:55.474Z,22.24
2023-03-27T12:14:55.423Z,22.25
2023-03-27T12:19:03.945Z,22.28
2023-03-27T12:22:56.563Z,22.30
2023-03-27T12:26:55.397Z,22.31
2023-03-27T12:30:57.304Z,22.30
2023-03-27T12:34:55.313Z,22.24
2023-03-27T12:38:55.270Z,22.17
2023-03-27T12:42:55.200Z,22.14
2023-03-27T12:46:55.253Z,22.10
2023-03-27T12:50:55.563Z,22.05
2023-03-27T12:54:55.384Z,22.02
2023-03-27T12:58:55.508Z,21.97
2023-03-27T13:02:55.637Z,21.94
2023-03-27T13:06:55.688Z,21.92
2023-03-27T13:10:55.982Z,21.91
2023-03-27T13:14:55.918Z,21.89
2023-03-27T13:18:56.051Z,21.88
2023-03-27T13:22:56.205Z,21.87
2023-03-27T13:26:56.310Z,21.85
2023-03-27T13:30:56.498Z,21.84
2023-03-27T13:34:56.567Z,21.85
2023-03-27T13:38:56.724Z,21.83
2023-03-27T13:42:56.812Z,21.82
2023-03-27T13:46:57.004Z,21.82
2023-03-27T13:50:57.104Z,21.82
2023-03-27T13:54:57.296Z,21.82
2023-03-27T13:58:57.389Z,21.82
2023-03-27T14:02:57.656Z,21.79
2023-03-27T14:06:57.652Z,21.79
2023-03-27T14:10:57.771Z,21.78
2023-03-27T14:14:58.126Z,21.76
2023-03-27T14:18:58.101Z,21.75
2023-03-27T14:22:58.208Z,21.74
2023-03-27T14:26:58.366Z,21.73
2023-03-27T14:30:58.548Z,21.71
2023-03-27T14:34:58.647Z,21.70
2023-03-27T14:38:58.850Z,21.68
2023-03-27T14:42:59.019Z,21.68
2023-03-27T14:46:59.171Z,21.69
2023-03-27T14:50:59.632Z,21.69
2023-03-27T14:54:59.510Z,21.68
2023-03-27T14:58:59.746Z,21.68
2023-03-27T15:03:00.123Z,21.67
2023-03-27T15:07:00.108Z,21.67
2023-03-27T15:11:00.344Z,21.67
2023-03-27T15:15:00.475Z,21.63
2023-03-27T15:19:00.694Z,21.63
2023-03-27T15:23:00.902Z,21.63
2023-03-27T15:27:01.097Z,21.62
2023-03-27T15:31:01.390Z,21.62
2023-03-27T15:35:01.504Z,21.61
2023-03-27T15:39:01.757Z,21.61
2023-03-27T15:43:01.942Z,21.62
2023-03-27T15:47:02.005Z,21.61
2023-03-27T15:51:01.905Z,21.61
2023-03-27T15:55:01.859Z,21.60
2023-03-27T15:59:01.811Z,21.59
2023-03-27T16:03:02.322Z,21.58
2023-03-27T16:07:01.729Z,21.55
2023-03-27T16:11:01.653Z,21.55
2023-03-27T16:15:01.671Z,21.54
2023-03-27T16:19:01.581Z,21.53
2023-03-27T16:23:01.683Z,21.53
2023-03-27T16:27:01.607Z,21.51
2023-03-27T16:31:01.542Z,21.51
2023-03-27T16:35:01.505Z,21.49
2023-03-27T16:39:01.491Z,21.48
2023-03-27T16:43:01.473Z,21.48
2023-03-27T16:47:01.438Z,21.47
2023-03-27T16:51:01.373Z,21.47
2023-03-27T16:55:01.355Z,21.45
2023-03-27T16:59:01.310Z,21.45
2023-03-27T17:03:01.446Z,21.44
2023-03-27T17:07:01.328Z,21.42
2023-03-27T17:11:01.316Z,21.40
2023-03-27T17:15:01.251Z,21.40
2023-03-27T17:19:01.239Z,21.38
2023-03-27T17:23:01.173Z,21.37
2023-03-27T17:27:01.164Z,21.35
2023-03-27T17:31:04.701Z,21.34
2023-03-27T17:35:01.074Z,21.32
2023-03-27T17:39:01.026Z,21.30
2023-03-27T17:43:01.011Z,21.29
2023-03-27T17:47:01.074Z,21.27
2023-03-27T17:51:08.738Z,21.26
2023-03-27T17:55:01.864Z,21.24
2023-03-27T17:59:00.844Z,21.23
2023-03-27T18:03:00.847Z,21.22
2023-03-27T18:07:00.788Z,21.20
2023-03-27T18:11:00.800Z,21.19
2023-03-27T18:15:00.776Z,21.18
2023-03-27T18:19:00.784Z,21.17
2023-03-27T18:23:00.770Z,21.15
2023-03-27T18:27:00.723Z,21.15
2023-03-27T18:31:00.735Z,21.12
2023-03-27T18:35:00.782Z,21.12
2023-03-27T18:39:00.797Z,21.11
2023-03-27T18:43:00.883Z,21.09
2023-03-27T18:47:00.786Z,21.09
2023-03-27T18:51:00.795Z,21.08
2023-03-27T18:55:00.764Z,21.07
2023-03-27T18:59:00.762Z,21.05
2023-03-27T19:03:00.763Z,21.04
2023-03-27T19:07:00.762Z,21.03
2023-03-27T19:11:00.976Z,21.02
2023-03-27T19:15:09.740Z,21.01
2023-03-27T19:19:01.672Z,21.00
2023-03-27T19:23:00.666Z,20.99
2023-03-27T19:27:00.598Z,20.98
2023-03-27T19:31:00.651Z,20.98
2023-03-27T19:35:00.505Z,20.97
2023-03-27T19:39:00.452Z,20.96
2023-03-27T19:43:00.402Z,20.95
2023-03-27T19:47:00.424Z,20.94
2023-03-27T19:51:00.365Z,20.93
2023-03-27T19:55:00.366Z,20.92
2023-03-27T19:59:00.325Z,20.91
2023-03-27T20:03:00.404Z,20.90
2023-03-27T20:07:00.329Z,20.89
2023-03-27T20:11:00.733Z,20.88
2023-03-27T20:15:11.104Z,20.87
2023-03-27T20:19:01.346Z,20.87
2023-03-27T20:23:00.294Z,20.86
2023-03-27T20:27:00.213Z,20.85
2023-03-27T20:31:00.262Z,20.84
2023-03-27T20:35:03.351Z,20.83
2023-03-27T20:39:01.119Z,20.83
2023-03-27T20:43:00.065Z,20.82
2023-03-27T20:47:00.214Z,20.82
2023-03-27T20:51:00.034Z,20.81
2023-03-27T20:54:59.973Z,20.81
2023-03-27T20:58:59.987Z,20.80
2023-03-27T21:03:00.132Z,20.78
2023-03-27T21:06:59.995Z,20.78
2023-03-27T21:11:00.037Z,20.77
2023-03-27T21:15:00.115Z,20.76
2023-03-27T21:19:00.163Z,20.75
2023-03-27T21:23:00.179Z,20.75
2023-03-27T21:27:00.282Z,20.74
2023-03-27T21:31:00.324Z,20.73
2023-03-27T21:35:00.370Z,20.73
2023-03-27T21:39:00.381Z,20.72
2023-03-27T21:43:00.482Z,20.71
2023-03-27T21:47:00.562Z,20.71
2023-03-27T21:51:00.572Z,20.69
2023-03-27T21:55:03.377Z,20.69
2023-03-27T21:59:00.615Z,20.68
2023-03-27T22:03:00.828Z,20.67
2023-03-27T22:07:00.506Z,20.66
2023-03-27T22:11:00.509Z,20.66
2023-03-27T22:15:00.480Z,20.66
2023-03-27T22:19:00.423Z,20.65
2023-03-27T22:23:00.386Z,20.64
2023-03-27T22:27:00.330Z,20.64
2023-03-27T22:31:00.315Z,20.62
2023-03-27T22:35:00.250Z,20.62
2023-03-27T22:39:00.234Z,20.62
2023-03-27T22:43:00.221Z,20.60
2023-03-27T22:47:00.334Z,20.60
2023-03-27T22:51:00.103Z,20.59
2023-03-27T22:55:00.099Z,20.59
2023-03-27T22:59:00.019Z,20.58
2023-03-27T23:03:00.045Z,20.57
2023-03-27T23:06:59.961Z,20.57
2023-03-27T23:10:59.906Z,20.56
2023-03-27T23:14:59.974Z,20.55
2023-03-27T23:19:00.049Z,20.55
2023-03-27T23:23:00.125Z,20.53
2023-03-27T23:27:00.215Z,20.53
2023-03-27T23:31:00.306Z,20.53
2023-03-27T23:35:00.451Z,20.52
2023-03-27T23:39:00.541Z,20.51
2023-03-27T23:43:00.703Z,20.51
2023-03-27T23:47:00.797Z,20.50
2023-03-27T23:51:01.036Z,20.49
2023-03-27T23:55:01.101Z,20.50
2023-03-27T23:59:01.216Z,20.48
